NFFN/NAN METAR and TAF weather

Enter ICAO airport designator
Station Type Date Time Source
NFFN METAR 2018/12/12 11:00 UTC NOAA

NFFN 121100Z 10006KT 9999 SCT028 SCT048 BKN120 26/21 Q1009 NOSIG


Station Type Date Time Source
NFFN Decoded METAR 2018/12/12 11:00 UTC NOAA

Nandi, Fiji (NFFN) 17-45S 177-27E 18M
Dec 12, 2018 - 06:00 AM EST / 2018.12.12 1100 UTC
Wind: from the E (100 degrees) at 7 MPH (6 KT):0
Visibility: greater than 7 mile(s):0
Sky conditions: mostly cloudy
Temperature: 78 F (26 C)
Dew Point: 69 F (21 C)
Relative Humidity: 73%
Pressure (altimeter): 29.80 in. Hg (1009 hPa)
ob: NFFN 121100Z 10006KT 9999 SCT028 SCT048 BKN120 26/21 Q1009 NOSIG
cycle: 11

Station Type Date Time Source
NFFN TAF 2018/12/12 12:12 UTC NOAA

TAF NFFN 121103Z 1212/1312 11006KT 9999 SCT030 SCT050
BECMG 1222/1224 28010KT PROB30
TEMPO 1302/1306 5000 SHRA BKN015
BECMG 1304/1306 13008KT


Example: see airport list